EST,Max TemperatureF,Mean TemperatureF,Min TemperatureF,Max Dew PointF,MeanDew PointF,Min DewpointF,Max Humidity, Mean Humidity, Min Humidity, Max Sea Level PressureIn, Mean Sea Level PressureIn, Min Sea Level PressureIn, Max VisibilityMiles, Mean VisibilityMiles, Min VisibilityMiles, Max Wind SpeedMPH, Mean Wind SpeedMPH, Max Gust SpeedMPH,PrecipitationIn, CloudCover, Events, WindDirDegrees
2012-11-1,45,42,38,37,32,28,92,75,57,29.82,29.74,29.69,10,10,8,24,13,31,0.02,8,Rain,314
2012-11-2,42,39,36,34,31,27,82,73,64,30.14,29.99,29.81,10,10,8,20,13,30,T,8,Rain,347
2012-11-3,39,36,33,33,30,26,96,80,64,30.23,30.20,30.12,10,8,2,13,5,17,0.13,8,Rain-Snow,44
2012-11-4,42,38,34,31,28,27,82,70,57,30.25,30.22,30.19,10,10,10,12,4,16,0.00,8,,28
2012-11-5,37,32,26,27,23,21,81,69,56,30.27,30.23,30.16,10,10,10,8,2,10,0.00,7,,102
2012-11-6,39,35,31,27,25,22,69,62,54,30.16,30.03,29.95,10,10,10,13,4,17,T,8,,153
2012-11-7,48,40,31,28,27,26,85,65,45,30.16,30.10,30.01,10,10,9,14,4,18,0.00,5,,141
2012-11-8,45,41,36,36,33,27,76,72,67,30.19,30.12,30.06,10,9,6,9,3,13,0.00,8,,177
2012-11-9,47,42,37,43,39,35,92,84,76,30.14,30.11,30.07,8,4,2,7,2,10,0.03,7,Rain,116
2012-11-10,62,53,44,47,42,39,89,78,67,30.13,30.00,29.83,10,5,3,14,6,22,0.07,6,Rain,116
2012-11-11,69,61,53,55,50,45,93,70,47,29.88,29.79,29.69,10,9,2,21,10,30,0.20,5,Rain,195
2012-11-12,54,41,28,50,31,18,93,76,58,30.19,29.93,29.75,10,8,1,22,10,29,0.06,8,Rain-Snow,245
2012-11-13,38,33,27,25,21,17,75,62,48,30.50,30.39,30.16,10,10,9,16,5,20,T,5,Snow,238
2012-11-14,43,36,28,28,24,21,75,63,50,30.53,30.47,30.38,10,10,10,10,5,17,0.00,5,,167
2012-11-15,50,42,34,33,29,23,85,66,46,30.38,30.33,30.28,10,9,5,14,4,22,0.00,4,,179
2012-11-16,44,36,27,33,29,24,96,71,45,30.51,30.43,30.33,10,6,2,12,3,15,0.00,2,,42
2012-11-17,52,39,25,37,31,23,100,74,48,30.57,30.53,30.50,10,7,2,8,2,12,0.00,5,,173
2012-11-18,58,44,29,33,29,27,92,63,33,30.50,30.44,30.38,10,8,5,12,3,20,0.00,2,,163
2012-11-19,53,44,34,39,33,29,82,66,50,30.35,30.26,30.12,10,9,6,8,2,13,0.04,5,Rain,155
2012-11-20,50,46,42,46,43,38,96,84,71,30.16,30.12,30.08,8,3,1,6,0,10,0.14,8,Rain,158
2012-11-21,55,51,46,45,42,35,93,74,54,30.19,30.12,29.99,10,6,2,12,5,23,0.00,6,,192
2012-11-22,65,58,50,48,41,37,74,56,37,29.99,29.77,29.58,10,9,5,17,11,33,0.00,5,,204
2012-11-23,57,45,32,48,28,21,82,71,59,30.02,29.75,29.53,10,6,1,33,21,47,0.01,8,Snow,277
2012-11-24,32,31,29,22,20,18,69,66,63,30.12,30.07,29.97,10,10,7,26,12,33,T,8,Snow,295
2012-11-25,34,31,28,27,24,18,92,73,54,29.98,29.84,29.76,10,6,1,21,7,26,0.02,8,Snow,225
2012-11-26,31,29,26,25,20,15,78,68,58,30.31,30.18,30.00,10,7,2,16,8,18,T,8,Snow,279
2012-11-27,34,30,25,24,18,14,75,60,45,30.32,30.25,30.13,10,10,4,13,6,20,T,6,Snow,225
2012-11-28,32,28,24,28,23,17,92,75,58,30.27,30.18,30.10,10,8,1,17,6,23,0.03,7,Snow,245
2012-11-29,40,33,25,31,26,21,85,72,59,30.26,30.20,30.16,10,10,10,12,4,16,0.00,6,,67
2012-11-30,35,33,30,31,26,24,89,79,69,30.32,30.27,30.25,10,10,7,16,9,25,T,8,Snow,99